Time;durP1;ratioP1;P1;durP2;ratioP2;P2;SDS_P1;SDS_P2;PMS_P1;PMS_P2;Temp;Humidity;BMP_temperature;BMP_pressure;BME280_temperature;BME280_humidity;BME280_pressure;Samples;Min_cycle;Max_cycle;Signal;HPM_P1;HPM_P2
2022/04/26 03:36:35;;;;;;;18.88;9.98;;;6.70;99.90;;;;;;6221225;23;20074;-92
2022/04/26 03:39:01;;;;;;;24.20;9.90;;;6.70;99.90;;;;;;6196013;23;20028;-87
2022/04/26 03:41:27;;;;;;;20.00;9.30;;;6.80;99.90;;;;;;6196029;23;20019;-89
2022/04/26 03:43:53;;;;;;;19.17;8.43;;;6.80;99.90;;;;;;6221176;23;20017;-90
2022/04/26 03:46:19;;;;;;;21.47;8.87;;;6.80;99.90;;;;;;6221322;23;20466;-90
2022/04/26 03:48:44;;;;;;;17.77;9.40;;;6.90;99.90;;;;;;6197323;23;20024;-92
2022/04/26 03:51:10;;;;;;;16.27;7.83;;;6.90;99.90;;;;;;6225925;23;20496;-90
2022/04/26 03:53:36;;;;;;;20.10;8.70;;;6.90;99.90;;;;;;6221210;23;20023;-88
2022/04/26 03:56:02;;;;;;;15.50;8.10;;;6.90;99.90;;;;;;6207548;23;20074;-87
2022/04/26 03:58:28;;;;;;;22.90;8.53;;;6.90;99.90;;;;;;6208414;23;20027;-88
2022/04/26 04:00:56;;;;;;;21.90;7.80;;;6.90;99.90;;;;;;6227502;23;20087;-93
2022/04/26 04:03:23;;;;;;;19.40;7.73;;;7.00;99.90;;;;;;6197011;23;20056;-96
2022/04/26 04:05:50;;;;;;;16.70;7.40;;;6.90;99.90;;;;;;6227313;23;20020;-90
2022/04/26 04:08:16;;;;;;;17.13;6.83;;;6.90;99.90;;;;;;6196344;23;20023;-90
2022/04/26 04:10:42;;;;;;;16.63;6.50;;;6.90;99.90;;;;;;6221113;23;20047;-92
2022/04/26 04:13:08;;;;;;;12.03;6.40;;;6.90;99.90;;;;;;6221706;23;20017;-88
2022/04/26 04:15:34;;;;;;;16.17;6.10;;;6.90;99.90;;;;;;6221710;23;20024;-89
2022/04/26 04:18:00;;;;;;;19.17;5.97;;;6.90;99.90;;;;;;6196173;23;20091;-89
2022/04/26 04:20:25;;;;;;;15.93;5.70;;;6.80;99.90;;;;;;6221815;23;20376;-88
2022/04/26 04:22:53;;;;;;;12.03;5.60;;;6.80;99.90;;;;;;6219732;23;20016;-88
2022/04/26 04:25:20;;;;;;;14.57;5.75;;;6.80;99.90;;;;;;6220611;23;20016;-88
2022/04/26 04:27:47;;;;;;;14.70;5.65;;;6.80;99.90;;;;;;6195346;23;20020;-88
2022/04/26 04:30:12;;;;;;;14.77;5.68;;;6.80;99.90;;;;;;6195469;23;20012;-87
2022/04/26 04:32:39;;;;;;;14.90;5.13;;;6.80;99.90;;;;;;6220653;23;20095;-88
2022/04/26 04:35:06;;;;;;;14.18;4.95;;;6.80;99.90;;;;;;6195566;23;20020;-90
2022/04/26 04:37:32;;;;;;;14.65;5.47;;;6.80;99.90;;;;;;6195324;23;20528;-89
2022/04/26 04:39:58;;;;;;;12.23;5.43;;;6.80;99.90;;;;;;6220724;23;20024;-88
2022/04/26 04:42:23;;;;;;;11.97;5.30;;;6.80;99.90;;;;;;6195182;23;20027;-88
2022/04/26 04:44:49;;;;;;;17.70;6.17;;;6.80;99.90;;;;;;6195615;23;20016;-90
2022/04/26 04:47:15;;;;;;;18.97;6.57;;;6.80;99.90;;;;;;6247557;23;20043;-91
2022/04/26 04:49:41;;;;;;;19.20;6.17;;;6.80;99.90;;;;;;6220471;23;20026;-89
2022/04/26 04:52:06;;;;;;;12.70;5.43;;;6.90;99.90;;;;;;6220250;23;20096;-89
2022/04/26 04:54:32;;;;;;;14.43;6.53;;;6.90;99.90;;;;;;6220513;23;20275;-89
2022/04/26 04:56:58;;;;;;;17.30;6.30;;;6.90;99.90;;;;;;6220227;23;20024;-87
2022/04/26 04:59:24;;;;;;;17.83;6.70;;;6.90;99.90;;;;;;6195211;23;20016;-89
2022/04/26 05:01:49;;;;;;;12.77;6.63;;;6.90;99.90;;;;;;6195272;23;20016;-89
2022/04/26 05:04:15;;;;;;;12.37;6.33;;;6.90;99.90;;;;;;6220092;23;20091;-90
2022/04/26 05:06:41;;;;;;;13.53;6.10;;;6.90;99.90;;;;;;6220182;23;20024;-88
2022/04/26 05:09:07;;;;;;;15.70;6.50;;;6.90;99.90;;;;;;6219891;23;20012;-87
2022/04/26 05:11:32;;;;;;;17.67;6.07;;;7.00;99.90;;;;;;6220138;23;20259;-89
2022/04/26 05:13:58;;;;;;;20.30;6.43;;;7.00;99.90;;;;;;6246956;23;20012;-90
2022/04/26 05:16:24;;;;;;;17.07;7.77;;;7.10;99.90;;;;;;6220444;23;20338;-88
2022/04/26 05:18:49;;;;;;;14.50;5.97;;;7.20;99.90;;;;;;6220385;23;20016;-87
2022/04/26 05:21:16;;;;;;;11.53;5.40;;;7.30;99.90;;;;;;6220010;23;20020;-89
2022/04/26 05:26:28;;;;;;;19.08;6.07;;;7.40;99.90;;;;;;6174532;23;20024;-88
2022/04/26 05:28:53;;;;;;;12.90;5.27;;;7.50;99.90;;;;;;6220050;23;20027;-91
2022/04/26 05:31:19;;;;;;;11.33;5.87;;;7.60;99.90;;;;;;6219672;23;20097;-87
2022/04/26 05:33:45;;;;;;;11.60;5.30;;;7.80;99.90;;;;;;6194769;23;20476;-89
2022/04/26 05:36:11;;;;;;;16.50;5.63;;;7.80;99.90;;;;;;6194821;23;20012;-88
2022/04/26 05:38:36;;;;;;;13.50;6.23;;;7.90;99.90;;;;;;6194827;23;20027;-88
2022/04/26 05:41:02;;;;;;;12.83;5.57;;;7.90;99.90;;;;;;6219709;23;20024;-88
2022/04/26 05:43:28;;;;;;;16.03;6.97;;;7.90;99.90;;;;;;6219870;23;20012;-89
2022/04/26 05:45:54;;;;;;;11.60;6.10;;;7.90;99.90;;;;;;6194709;23;20048;-88
2022/04/26 05:48:19;;;;;;;14.67;6.43;;;8.00;99.90;;;;;;6219901;23;20051;-92
2022/04/26 05:50:45;;;;;;;13.50;6.60;;;8.00;99.90;;;;;;6225065;23;20077;-89
2022/04/26 05:53:11;;;;;;;13.35;6.90;;;8.10;99.90;;;;;;6198322;23;20012;-94
2022/04/26 05:55:38;;;;;;;15.20;7.20;;;8.20;99.90;;;;;;6194744;23;20086;-92
2022/04/26 05:58:05;;;;;;;14.60;6.32;;;8.40;99.90;;;;;;6225503;23;20042;-89
2022/04/26 06:00:31;;;;;;;14.05;6.22;;;8.50;99.90;;;;;;6200802;23;20016;-92
2022/04/26 06:02:57;;;;;;;14.10;5.83;;;8.70;99.90;;;;;;6195029;23;20035;-89
2022/04/26 06:05:23;;;;;;;14.57;6.17;;;8.80;99.90;;;;;;6214163;23;20024;-88
2022/04/26 06:07:49;;;;;;;13.32;5.32;;;9.00;99.90;;;;;;6189549;23;20083;-90
2022/04/26 06:10:15;;;;;;;10.63;4.70;;;9.00;99.90;;;;;;6192349;23;20048;-92
2022/04/26 06:12:44;;;;;;;13.32;5.00;;;9.00;99.90;;;;;;6194549;23;20028;-91
2022/04/26 06:15:11;;;;;;;10.65;4.40;;;8.90;99.90;;;;;;6191045;23;20017;-91
2022/04/26 06:17:37;;;;;;;13.05;4.45;;;8.80;99.90;;;;;;6190049;23;20469;-90
2022/04/26 06:20:29;;;;;;;13.53;4.43;;;8.70;99.90;;;;;;6189701;23;20016;-92
2022/04/26 06:23:35;;;;;;;;;;;;;;;;;;;;;
2022/04/26 06:26:01;;;;;;;11.18;3.50;;;8.70;99.90;;;;;;6211528;23;20017;-93
2022/04/26 06:28:27;;;;;;;16.37;3.77;;;8.90;99.90;;;;;;6187885;23;20104;-92
2022/04/26 06:30:55;;;;;;;10.75;3.20;;;9.10;99.90;;;;;;6188949;23;20020;-90
2022/04/26 06:33:20;;;;;;;10.45;3.28;;;9.80;99.90;;;;;;6214815;23;20052;-93
2022/04/26 06:35:46;;;;;;;10.53;3.00;;;10.70;99.90;;;;;;6190383;23;20024;-91
2022/04/26 06:38:12;;;;;;;9.17;2.43;;;11.60;99.90;;;;;;6191789;23;20442;-92
2022/04/26 06:40:37;;;;;;;9.47;2.80;;;12.40;99.90;;;;;;6191392;23;20044;-93
2022/04/26 06:43:03;;;;;;;12.33;3.40;;;12.70;99.90;;;;;;6190509;23;20020;-92
2022/04/26 06:45:46;;;;;;;10.35;3.33;;;12.90;99.90;;;;;;6189177;23;20099;-92
2022/04/26 06:48:13;;;;;;;9.43;2.72;;;13.00;99.90;;;;;;6189295;23;20024;-90
2022/04/26 06:50:39;;;;;;;9.90;2.88;;;12.80;99.90;;;;;;6189396;23;20017;-90
2022/04/26 06:53:05;;;;;;;7.72;2.67;;;12.40;99.90;;;;;;6189000;23;20017;-91
2022/04/26 06:55:31;;;;;;;11.45;3.22;;;11.90;99.90;;;;;;6189574;23;20398;-93
2022/04/26 06:57:57;;;;;;;9.18;3.33;;;11.30;99.90;;;;;;6189369;23;20063;-90
2022/04/26 07:00:28;;;;;;;12.60;2.50;;;10.90;99.90;;;;;;6189270;23;20017;-90
2022/04/26 07:02:54;;;;;;;9.88;2.70;;;10.70;99.90;;;;;;6189193;23;20624;-89
2022/04/26 07:05:21;;;;;;;8.52;3.10;;;10.60;99.90;;;;;;6189703;23;20017;-91
2022/04/26 07:07:52;;;;;;;11.00;3.38;;;10.50;99.90;;;;;;6189017;23;20017;-91
2022/04/26 07:10:19;;;;;;;6.63;2.55;;;10.40;99.90;;;;;;6188887;23;20016;-90
2022/04/26 07:12:47;;;;;;;;;;;10.50;99.90;;;;;;6188326;23;20028;-91
2022/04/26 07:15:13;;;;;;;11.25;2.90;;;10.70;99.90;;;;;;6189153;23;19982;-92
2022/04/26 07:17:40;;;;;;;11.88;3.50;;;10.70;99.90;;;;;;6190624;23;20075;-92
2022/04/26 07:20:27;;;;;;;;;;;;;;;;;;;;;
2022/04/26 07:23:00;;;;;;;8.48;3.17;;;10.50;99.90;;;;;;6216226;23;20052;-92
2022/04/26 07:25:26;;;;;;;7.28;2.85;;;10.40;99.90;;;;;;6191286;23;20541;-91
2022/04/26 07:27:52;;;;;;;6.17;2.67;;;10.60;99.90;;;;;;6215865;23;20021;-93
2022/04/26 07:36:48;;;;;;;8.80;3.25;;;10.70;99.90;;;;;;6216147;23;20436;-91
2022/04/26 07:42:09;;;;;;;8.57;3.13;;;10.50;99.90;;;;;;6198187;23;20024;-90
2022/04/26 07:44:35;;;;;;;7.88;3.13;;;10.30;99.90;;;;;;6191767;23;20480;-92
2022/04/26 07:47:01;;;;;;;8.90;3.00;;;10.30;99.90;;;;;;6191419;23;20052;-93
2022/04/26 07:49:27;;;;;;;;;;;10.30;99.90;;;;;;6191545;23;20040;-92
2022/04/26 07:51:53;;;;;;;11.25;3.33;;;10.30;99.90;;;;;;6190965;23;20250;-93
2022/04/26 07:54:23;;;;;;;7.72;3.00;;;10.20;99.90;;;;;;6190826;23;20016;-92
2022/04/26 07:56:58;;;;;;;9.75;3.30;;;10.20;99.90;;;;;;6192578;23;20017;-93
2022/04/26 07:59:25;;;;;;;9.20;3.20;;;10.30;99.90;;;;;;6191132;23;20012;-91
2022/04/26 08:02:24;;;;;;;8.27;2.88;;;10.40;99.90;;;;;;6190811;23;20040;-92
2022/04/26 08:05:19;;;;;;;9.13;3.10;;;10.40;99.90;;;;;;6190431;23;20509;-92
2022/04/26 08:07:45;;;;;;;8.48;2.85;;;10.40;99.90;;;;;;6188125;23;20025;-92
2022/04/26 08:10:12;;;;;;;6.60;2.90;;;10.40;99.90;;;;;;6191067;23;20019;-93
2022/04/26 08:12:39;;;;;;;11.05;3.00;;;10.40;99.90;;;;;;6191145;23;20012;-94
2022/04/26 08:15:05;;;;;;;;;;;10.30;99.90;;;;;;6192166;23;20028;-94
2022/04/26 08:17:30;;;;;;;7.65;2.70;;;10.40;99.90;;;;;;6190952;23;19911;-93
2022/04/26 08:19:56;;;;;;;8.30;2.67;;;10.50;99.90;;;;;;6190814;23;20016;-89
2022/04/26 08:22:25;;;;;;;7.43;2.33;;;10.60;99.90;;;;;;6190594;23;20457;-90
2022/04/26 08:28:01;;;;;;;8.38;2.90;;;10.70;99.90;;;;;;6216579;23;20021;-92
2022/04/26 08:30:27;;;;;;;9.15;2.70;;;10.70;99.90;;;;;;6190894;23;20056;-91
2022/04/26 08:32:53;;;;;;;7.22;2.83;;;10.70;99.90;;;;;;6190888;23;20027;-93
2022/04/26 08:35:23;;;;;;;6.45;2.28;;;10.80;99.90;;;;;;6191369;23;20012;-90
2022/04/26 08:38:24;;;;;;;;;;;;;;;;;;;;;
2022/04/26 08:40:44;;;;;;;6.35;2.50;;;11.00;99.90;;;;;;6208585;23;20016;-91
2022/04/26 08:43:15;;;;;;;6.95;2.67;;;11.00;99.90;;;;;;6190659;23;20013;-94
2022/04/26 08:45:41;;;;;;;8.98;2.50;;;11.00;99.90;;;;;;6191567;23;20009;-94
2022/04/26 08:53:39;;;;;;;6.95;2.25;;;11.20;99.90;;;;;;6215432;23;20029;-91
2022/04/26 08:56:06;;;;;;;9.43;2.33;;;11.30;99.90;;;;;;6190424;23;20043;-92
2022/04/26 08:58:34;;;;;;;8.63;2.35;;;11.30;99.90;;;;;;6190686;23;20103;-91
2022/04/26 09:01:18;;;;;;;8.65;2.28;;;11.40;99.90;;;;;;6190122;23;20046;-94
2022/04/26 09:04:02;;;;;;;5.05;2.58;;;11.40;99.90;;;;;;6216024;23;20108;-95
2022/04/26 09:06:43;;;;;;;6.13;2.22;;;11.40;99.90;;;;;;6165380;23;20434;-92
2022/04/26 09:09:11;;;;;;;5.55;2.00;;;11.50;99.90;;;;;;6165106;23;20015;-88
2022/04/26 09:11:38;;;;;;;6.97;2.55;;;11.60;99.90;;;;;;6164761;23;20024;-90
2022/04/26 09:14:32;;;;;;;6.63;2.08;;;11.70;99.90;;;;;;6164994;23;20013;-87
2022/04/26 09:17:09;;;;;;;6.72;2.75;;;11.80;99.90;;;;;;6164300;23;20016;-89
2022/04/26 09:19:50;;;;;;;7.40;2.58;;;11.80;99.90;;;;;;6165070;23;20016;-90
2022/04/26 09:22:21;;;;;;;8.93;2.60;;;11.80;99.90;;;;;;6189771;23;20027;-91
2022/04/26 09:24:58;;;;;;;9.02;2.70;;;11.70;99.90;;;;;;6164718;23;20013;-89
2022/04/26 09:27:25;;;;;;;8.07;2.67;;;11.50;99.90;;;;;;6164569;23;20008;-88
2022/04/26 09:30:19;;;;;;;8.90;2.75;;;11.40;99.90;;;;;;6164585;23;20087;-89
2022/04/26 09:33:07;;;;;;;7.03;2.60;;;11.20;99.90;;;;;;6164844;23;20013;-89
2022/04/26 09:35:32;;;;;;;6.50;2.58;;;11.00;99.90;;;;;;6164560;23;20017;-89
2022/04/26 09:38:02;;;;;;;8.50;2.50;;;11.00;99.90;;;;;;6188836;23;20047;-89
2022/04/26 09:40:31;;;;;;;8.20;2.53;;;10.90;99.90;;;;;;6188795;23;20056;-86
2022/04/26 09:42:57;;;;;;;9.30;2.97;;;10.80;99.90;;;;;;6164289;23;20090;-91
2022/04/26 09:45:57;;;;;;;5.93;2.75;;;10.90;99.90;;;;;;6189621;23;20021;-89
2022/04/26 09:48:29;;;;;;;9.30;2.60;;;10.90;99.90;;;;;;6163897;23;20021;-91
2022/04/26 09:50:56;;;;;;;7.10;2.28;;;10.80;99.90;;;;;;6189102;23;20024;-87
2022/04/26 09:53:22;;;;;;;7.57;2.92;;;11.00;99.90;;;;;;6215371;23;20021;-86
2022/04/26 09:55:48;;;;;;;9.30;2.65;;;11.10;99.90;;;;;;6164411;23;20091;-88
2022/04/26 09:58:17;;;;;;;9.32;2.92;;;11.30;99.90;;;;;;6164703;23;20031;-87
2022/04/26 10:00:44;;;;;;;8.20;2.38;;;11.50;99.90;;;;;;6160724;23;20083;-87
2022/04/26 10:04:21;;;;;;;8.45;3.10;;;11.70;99.90;;;;;;6215384;23;20327;-88
2022/04/26 10:07:14;;;;;;;8.32;2.75;;;11.90;99.90;;;;;;6218961;23;20024;-87
2022/04/26 10:09:44;;;;;;;6.95;2.55;;;12.10;99.90;;;;;;6192901;23;20094;-89
2022/04/26 10:12:10;;;;;;;8.23;2.50;;;12.10;99.90;;;;;;6193996;23;20020;-86
2022/04/26 10:14:37;;;;;;;7.28;2.40;;;11.90;99.90;;;;;;6218917;23;20016;-87
2022/04/26 10:17:14;;;;;;;8.48;2.55;;;11.80;99.90;;;;;;6219558;23;20020;-89
2022/04/26 10:19:44;;;;;;;7.72;2.70;;;11.70;99.90;;;;;;6194156;23;20020;-88
2022/04/26 10:22:14;;;;;;;9.60;2.33;;;11.70;99.90;;;;;;6193946;23;20020;-92
2022/04/26 10:24:40;;;;;;;7.32;2.10;;;11.50;99.90;;;;;;6219230;23;20016;-88
2022/04/26 10:27:25;;;;;;;8.07;2.42;;;11.50;99.90;;;;;;6219040;23;20449;-87
2022/04/26 10:29:52;;;;;;;5.07;1.90;;;11.60;99.90;;;;;;6245722;23;20330;-88
2022/04/26 10:32:39;;;;;;;6.55;2.50;;;11.80;99.90;;;;;;6245868;23;20023;-91
2022/04/26 10:35:23;;;;;;;6.53;2.55;;;12.00;99.10;;;;;;6194266;23;20078;-87
2022/04/26 10:38:22;;;;;;;7.60;2.38;;;12.20;98.10;;;;;;6194355;23;20087;-88
2022/04/26 10:41:09;;;;;;;7.05;2.45;;;12.30;97.60;;;;;;6154589;23;20020;-89
2022/04/26 10:43:35;;;;;;;6.43;2.30;;;12.50;97.20;;;;;;6219232;23;20111;-90
2022/04/26 10:46:15;;;;;;;6.95;2.40;;;12.60;96.60;;;;;;6219113;23;20100;-87
2022/04/26 10:48:41;;;;;;;4.90;2.13;;;12.80;96.10;;;;;;6245941;23;20012;-87
2022/04/26 10:51:35;;;;;;;7.32;2.17;;;12.90;95.70;;;;;;6218544;23;20105;-87
2022/04/26 10:54:02;;;;;;;8.85;2.70;;;13.00;95.00;;;;;;6247206;23;20492;-89
2022/04/26 10:56:43;;;;;;;6.47;2.40;;;12.90;94.70;;;;;;6196248;23;20329;-89
2022/04/26 10:59:15;;;;;;;5.22;2.10;;;13.00;94.30;;;;;;6195457;23;20473;-86
2022/04/26 11:01:42;;;;;;;6.82;2.60;;;13.10;93.40;;;;;;6220611;23;20020;-91
2022/04/26 11:04:16;;;;;;;6.28;2.33;;;13.30;93.30;;;;;;6247629;23;20023;-90
2022/04/26 11:06:43;;;;;;;8.50;3.05;;;13.30;92.80;;;;;;6220857;23;20016;-90
2022/04/26 11:09:16;;;;;;;;;;;13.00;93.00;;;;;;6221635;23;20023;-87
2022/04/26 11:11:55;;;;;;;7.40;2.25;;;12.80;92.60;;;;;;6247686;23;19946;-86
2022/04/26 11:14:22;;;;;;;5.22;2.17;;;12.60;93.80;;;;;;6195198;23;20017;-87
2022/04/26 11:17:02;;;;;;;7.82;2.33;;;12.60;93.90;;;;;;6195825;23;20130;-89
2022/04/26 11:19:32;;;;;;;8.43;2.40;;;12.70;93.50;;;;;;6221177;23;20016;-92
2022/04/26 11:22:08;;;;;;;5.55;2.30;;;12.90;93.50;;;;;;6195750;23;20078;-87
2022/04/26 11:30:08;;;;;;;6.90;2.78;;;13.00;91.90;;;;;;6220866;23;20027;-86
2022/04/26 11:32:35;;;;;;;7.05;2.20;;;13.10;92.00;;;;;;6220538;23;20012;-85
2022/04/26 11:35:01;;;;;;;5.90;2.20;;;13.30;91.80;;;;;;6220371;23;20016;-88
2022/04/26 11:37:27;;;;;;;;;;;13.40;90.50;;;;;;6247945;23;20349;-87
2022/04/26 11:40:17;;;;;;;6.00;2.30;;;13.40;89.50;;;;;;6195369;23;19978;-88
2022/04/26 11:43:10;;;;;;;7.93;2.40;;;13.60;90.20;;;;;;6195323;23;20454;-90
2022/04/26 11:45:39;;;;;;;5.63;2.13;;;13.60;89.90;;;;;;6219172;23;20039;-87
2022/04/26 11:48:11;;;;;;;7.50;2.50;;;13.70;90.30;;;;;;6220236;23;20016;-86
2022/04/26 11:50:37;;;;;;;7.18;2.15;;;13.80;88.90;;;;;;6195206;23;20016;-87
2022/04/26 11:53:11;;;;;;;6.50;2.80;;;13.90;88.60;;;;;;6195511;23;20016;-86
2022/04/26 11:55:42;;;;;;;7.30;2.10;;;13.90;88.00;;;;;;6193579;23;20020;-86
2022/04/26 12:09:02;;;;;;;5.85;2.35;;;13.50;85.10;;;;;;6208415;23;20025;-88
2022/04/26 12:11:30;;;;;;;6.38;2.38;;;13.20;86.30;;;;;;6165554;23;20082;-87
2022/04/26 12:14:07;;;;;;;4.90;2.20;;;13.10;87.00;;;;;;6190051;23;20013;-87
2022/04/26 12:16:59;;;;;;;7.80;2.55;;;13.00;87.90;;;;;;6165535;23;20012;-87
2022/04/26 12:22:01;;;;;;;7.72;2.50;;;13.00;89.20;;;;;;6216395;23;20323;-88
2022/04/26 12:24:29;;;;;;;;;;;13.10;88.50;;;;;;6165740;23;20055;-88
2022/04/26 12:26:55;;;;;;;7.07;2.22;;;13.10;87.60;;;;;;6165134;23;19923;-89
2022/04/26 12:29:29;;;;;;;5.53;2.30;;;13.10;89.20;;;;;;6165176;23;20071;-89
2022/04/26 12:31:55;;;;;;;7.95;2.28;;;13.20;90.00;;;;;;6165409;23;20017;-90
2022/04/26 12:34:22;;;;;;;;;;;13.50;89.30;;;;;;6165865;23;20044;-88
2022/04/26 12:37:03;;;;;;;12.02;2.65;;;13.50;87.10;;;;;;6170351;23;19922;-87
2022/04/26 12:39:38;;;;;;;7.30;2.40;;;13.30;88.30;;;;;;6195112;23;20079;-88
2022/04/26 12:42:04;;;;;;;7.82;2.25;;;13.30;89.50;;;;;;6195376;23;20023;-90
2022/04/26 12:44:30;;;;;;;10.30;2.35;;;13.50;88.80;;;;;;6195758;23;20023;-93
2022/04/26 12:52:43;;;;;;;7.57;2.63;;;13.40;88.10;;;;;;6220021;23;20020;-89
2022/04/26 12:55:09;;;;;;;4.82;2.15;;;13.40;89.10;;;;;;6195042;23;20016;-89
2022/04/26 12:57:52;;;;;;;7.72;2.38;;;13.50;89.10;;;;;;6194888;23;20091;-90
2022/04/26 13:12:22;;;;;;;6.63;2.67;;;13.00;88.50;;;;;;6277398;22;20030;-91
2022/04/26 13:14:48;;;;;;;5.78;2.10;;;12.80;89.40;;;;;;6224789;22;20019;-89
2022/04/26 13:17:14;;;;;;;7.03;2.80;;;12.70;89.50;;;;;;6225206;22;20019;-87
2022/04/26 13:19:44;;;;;;;9.60;3.07;;;12.60;90.00;;;;;;6224906;22;20246;-90
2022/04/26 13:22:10;;;;;;;6.50;2.35;;;12.50;90.30;;;;;;6224702;22;20020;-90
2022/04/26 13:24:35;;;;;;;6.53;2.63;;;12.40;90.40;;;;;;6225173;22;20008;-89
2022/04/26 13:27:02;;;;;;;8.67;2.60;;;12.40;90.50;;;;;;6224751;22;20024;-91
2022/04/26 13:29:27;;;;;;;6.70;2.63;;;12.40;90.90;;;;;;6224596;22;20074;-87
2022/04/26 13:31:53;;;;;;;9.17;2.83;;;12.40;91.10;;;;;;6224760;22;20019;-88
2022/04/26 13:34:19;;;;;;;7.10;2.33;;;12.70;91.50;;;;;;6250019;22;20380;-88
2022/04/26 13:36:46;;;;;;;6.18;2.20;;;13.00;91.50;;;;;;6224680;22;20019;-89
2022/04/26 13:39:12;;;;;;;6.50;2.35;;;13.30;91.40;;;;;;6249988;22;20012;-88
2022/04/26 13:41:38;;;;;;;5.97;2.50;;;13.50;90.50;;;;;;6224426;22;20422;-90
2022/04/26 13:44:04;;;;;;;7.37;2.87;;;13.60;90.40;;;;;;6224773;22;20096;-89
2022/04/26 13:47:09;;;;;;;5.63;2.03;;;13.60;90.40;;;;;;6224543;22;20094;-88
2022/04/26 13:49:41;;;;;;;7.07;2.60;;;13.60;89.40;;;;;;6196046;22;20015;-90
2022/04/26 13:52:22;;;;;;;8.55;2.97;;;13.40;90.10;;;;;;6224678;22;20022;-92
2022/04/26 13:54:52;;;;;;;8.70;3.10;;;13.30;90.20;;;;;;6249986;22;20011;-89
2022/04/26 13:57:18;;;;;;;8.02;2.90;;;13.10;90.70;;;;;;6224484;22;20015;-88
2022/04/26 13:59:45;;;;;;;9.32;3.03;;;13.00;91.00;;;;;;6224904;22;20471;-88
2022/04/26 14:02:15;;;;;;;9.35;2.97;;;12.80;91.30;;;;;;6224485;22;20094;-89
2022/04/26 14:04:47;;;;;;;7.40;3.10;;;12.60;91.60;;;;;;6224024;22;20022;-91
2022/04/26 14:07:15;;;;;;;7.70;2.75;;;12.50;91.80;;;;;;6224509;22;20019;-90
2022/04/26 14:12:30;;;;;;;7.03;2.92;;;12.30;92.00;;;;;;6215640;22;20092;-90
2022/04/26 14:35:53;;;;;;;7.78;2.28;;;12.60;90.40;;;;;;6215323;23;20020;-92
2022/04/26 14:38:19;;;;;;;8.52;2.03;;;12.80;89.60;;;;;;6162421;23;20450;-86
2022/04/26 14:41:02;;;;;;;5.47;1.87;;;12.80;88.80;;;;;;6188391;23;20117;-90
2022/04/26 14:43:33;;;;;;;9.10;2.03;;;12.70;87.80;;;;;;6168958;23;20441;-89
2022/04/26 14:45:59;;;;;;;5.75;2.40;;;12.60;88.70;;;;;;6218973;23;20032;-87
2022/04/26 14:48:29;;;;;;;7.35;2.97;;;12.50;90.20;;;;;;6219268;23;20020;-88
2022/04/26 14:50:55;;;;;;;7.95;2.42;;;12.60;91.00;;;;;;6193721;23;20020;-87
2022/04/26 14:53:21;;;;;;;10.55;2.53;;;12.60;91.70;;;;;;6194099;23;20020;-90
2022/04/26 14:55:47;;;;;;;11.48;2.67;;;12.70;91.90;;;;;;6194402;23;20019;-90
2022/04/26 14:58:14;;;;;;;5.87;2.23;;;12.80;91.80;;;;;;6194360;23;20385;-87
2022/04/26 15:00:40;;;;;;;6.13;2.13;;;12.80;91.40;;;;;;6218489;23;20016;-88
2022/04/26 15:03:06;;;;;;;;;;;12.90;91.40;;;;;;6218090;23;20086;-88
2022/04/26 15:05:35;;;;;;;8.32;2.63;;;12.90;91.50;;;;;;6218495;23;20321;-88
2022/04/26 15:11:49;;;;;;;5.45;2.15;;;13.00;91.00;;;;;;6218101;23;20062;-90
2022/04/26 15:19:43;;;;;;;7.32;2.45;;;13.10;90.80;;;;;;6271442;22;20024;-92
2022/04/26 15:22:11;;;;;;;7.10;2.17;;;13.10;90.90;;;;;;6248948;22;20026;-87
2022/04/26 15:24:59;;;;;;;4.90;2.03;;;13.20;90.40;;;;;;6249227;22;20016;-91
2022/04/26 15:27:25;;;;;;;5.55;1.90;;;13.10;89.80;;;;;;6222998;22;20020;-90
2022/04/26 15:51:52;;;;;;;6.50;2.15;;;12.80;88.40;;;;;;6186976;23;20025;-88
2022/04/26 15:54:35;;;;;;;6.97;2.17;;;12.70;88.40;;;;;;6135870;23;20025;-88
2022/04/26 15:57:07;;;;;;;8.07;2.10;;;12.60;89.10;;;;;;6136548;23;20048;-86
2022/04/26 15:59:33;;;;;;;5.75;1.98;;;12.70;89.90;;;;;;6136398;23;20032;-90
2022/04/26 16:01:58;;;;;;;5.00;2.00;;;12.60;90.00;;;;;;6161150;23;20024;-86
2022/04/26 16:04:29;;;;;;;4.43;2.00;;;12.50;90.20;;;;;;6159718;23;20017;-88
2022/04/26 16:06:55;;;;;;;5.32;2.00;;;12.50;89.50;;;;;;6189405;23;20017;-85
2022/04/26 16:20:29;;;;;;;5.45;1.92;;;11.90;88.70;;;;;;6188117;23;20055;-84
2022/04/26 16:23:04;;;;;;;5.05;2.03;;;11.90;89.00;;;;;;6164864;23;20319;-86
2022/04/26 16:25:30;;;;;;;7.50;2.28;;;11.80;90.10;;;;;;6216443;23;20078;-84
2022/04/26 16:28:00;;;;;;;4.72;2.08;;;11.80;90.20;;;;;;6165043;23;20100;-85
2022/04/26 16:30:29;;;;;;;6.43;2.20;;;11.70;89.70;;;;;;6188264;23;20439;-85
2022/04/26 16:32:56;;;;;;;5.15;2.08;;;11.70;89.90;;;;;;6187883;23;20100;-85
2022/04/26 16:35:22;;;;;;;7.80;2.17;;;11.60;89.90;;;;;;6164763;23;20541;-84
2022/04/26 16:37:47;;;;;;;6.38;2.33;;;11.50;89.90;;;;;;6164519;23;20048;-87
2022/04/26 16:40:13;;;;;;;11.70;2.73;;;11.50;90.30;;;;;;6190383;23;20098;-91
2022/04/26 16:42:40;;;;;;;4.23;2.00;;;11.40;90.40;;;;;;6165184;23;20023;-91
2022/04/26 16:45:07;;;;;;;7.50;2.35;;;11.40;90.60;;;;;;6165320;23;20048;-88
2022/04/26 16:47:36;;;;;;;21.17;3.60;;;11.40;91.00;;;;;;6189355;23;20103;-88
2022/04/26 16:50:04;;;;;;;5.10;1.92;;;11.50;91.10;;;;;;6189026;23;20347;-87
2022/04/26 16:52:29;;;;;;;5.07;1.90;;;11.50;91.00;;;;;;6188331;23;20074;-89
2022/04/26 16:54:55;;;;;;;6.27;2.03;;;11.50;90.50;;;;;;6189561;23;20017;-89
2022/04/26 16:57:21;;;;;;;8.57;2.58;;;11.50;90.30;;;;;;6189665;23;20341;-87
2022/04/26 16:59:47;;;;;;;7.13;1.85;;;11.50;90.40;;;;;;6164715;23;20017;-86
2022/04/26 17:02:14;;;;;;;6.37;2.37;;;11.50;90.10;;;;;;6216259;23;20013;-88
2022/04/26 17:04:41;;;;;;;;;;;11.50;89.80;;;;;;6190221;23;20140;-89
2022/04/26 17:07:10;;;;;;;3.92;1.90;;;11.50;89.80;;;;;;6189911;23;20292;-91
2022/04/26 17:09:37;;;;;;;5.72;2.05;;;11.50;90.00;;;;;;6165194;23;20468;-89
2022/04/26 17:12:03;;;;;;;5.50;2.00;;;11.50;89.70;;;;;;6189560;23;20044;-88
2022/04/26 17:14:31;;;;;;;6.53;2.67;;;11.50;90.10;;;;;;6189419;23;20013;-88
2022/04/26 17:16:56;;;;;;;6.18;2.30;;;11.50;90.50;;;;;;6189582;23;20237;-89
2022/04/26 17:19:26;;;;;;;5.80;2.42;;;11.40;90.80;;;;;;6189692;23;20092;-89
2022/04/26 17:21:54;;;;;;;7.85;2.58;;;11.30;91.20;;;;;;6188781;23;20022;-90
2022/04/26 17:27:04;;;;;;;9.13;2.60;;;11.20;92.00;;;;;;6215142;23;20021;-85
2022/04/26 17:29:30;;;;;;;7.38;2.38;;;11.10;92.80;;;;;;6164740;23;20024;-86
2022/04/26 17:31:56;;;;;;;10.70;2.35;;;11.00;93.10;;;;;;6164456;23;20013;-85
2022/04/26 17:34:37;;;;;;;6.20;2.37;;;10.90;93.50;;;;;;6189197;23;20021;-85
2022/04/26 17:37:04;;;;;;;7.57;2.75;;;10.90;93.70;;;;;;6164062;23;20252;-85
2022/04/26 17:39:30;;;;;;;7.07;2.90;;;10.80;94.20;;;;;;6189535;23;20017;-86
2022/04/26 17:43:18;;;;;;;;;;;;;;;;;;;;;
2022/04/26 17:46:03;;;;;;;6.35;2.33;;;10.60;95.30;;;;;;6189421;23;20070;-86
2022/04/26 17:48:40;;;;;;;6.85;2.13;;;10.40;95.60;;;;;;6194155;23;20445;-88
2022/04/26 17:51:56;;;;;;;10.15;2.80;;;10.40;96.00;;;;;;6217677;23;20016;-88
2022/04/26 17:57:31;;;;;;;9.93;2.50;;;10.20;96.80;;;;;;6070588;23;20081;-88
2022/04/26 17:59:57;;;;;;;8.13;2.90;;;10.20;97.50;;;;;;6187947;23;20020;-87
2022/04/26 18:02:32;;;;;;;8.93;3.00;;;10.10;97.50;;;;;;6193756;23;20345;-88
2022/04/26 18:04:57;;;;;;;7.15;2.85;;;10.00;97.90;;;;;;6219151;23;20016;-87
2022/04/26 18:07:24;;;;;;;8.10;3.10;;;9.90;98.30;;;;;;6192474;23;20035;-87
2022/04/26 18:09:51;;;;;;;7.00;3.10;;;9.90;98.80;;;;;;6217907;23;20355;-87
2022/04/26 18:12:16;;;;;;;8.80;3.80;;;9.80;99.30;;;;;;6218220;23;20012;-86
2022/04/26 18:14:42;;;;;;;12.60;3.70;;;9.70;99.90;;;;;;6192648;23;20098;-89
2022/04/26 18:17:08;;;;;;;19.48;4.00;;;9.70;99.90;;;;;;6245931;23;20023;-90
2022/04/26 18:19:34;;;;;;;13.17;3.60;;;9.60;99.90;;;;;;6219391;23;20072;-87
2022/04/26 18:22:00;;;;;;;8.80;4.20;;;9.60;99.90;;;;;;6219196;23;20012;-88
2022/04/26 18:24:26;;;;;;;9.15;4.10;;;9.60;99.90;;;;;;6194436;23;20016;-88
2022/04/26 18:26:51;;;;;;;12.07;4.70;;;9.60;99.90;;;;;;6194060;23;20081;-88
2022/04/26 18:29:20;;;;;;;8.83;4.43;;;9.50;99.90;;;;;;6219000;23;20092;-88
2022/04/26 18:31:47;;;;;;;8.45;4.55;;;9.50;99.90;;;;;;6219135;23;20345;-87
2022/04/26 18:34:15;;;;;;;;;;;9.50;99.90;;;;;;6219370;23;20075;-86
2022/04/26 18:36:41;;;;;;;12.48;4.30;;;9.40;99.90;;;;;;6219005;23;19916;-85
2022/04/26 18:39:08;;;;;;;9.32;4.10;;;9.40;99.90;;;;;;6219096;23;20023;-86
2022/04/26 18:41:34;;;;;;;8.85;3.83;;;9.30;99.90;;;;;;6192252;23;20016;-87
2022/04/26 18:44:01;;;;;;;8.17;4.00;;;9.30;99.90;;;;;;6191118;23;20019;-86
2022/04/26 18:46:27;;;;;;;10.68;3.97;;;9.30;99.90;;;;;;6191370;23;20024;-87
2022/04/26 18:48:53;;;;;;;7.85;3.90;;;9.20;99.90;;;;;;6217993;23;20617;-87
2022/04/26 18:51:19;;;;;;;9.90;4.00;;;9.10;99.90;;;;;;6194014;23;20047;-87
2022/04/26 18:53:45;;;;;;;7.10;4.70;;;9.10;99.90;;;;;;6193930;23;20064;-89